createdAt,value
2018-07-26T00:01:00.348Z,53.90
2018-07-26T00:03:31.826Z,54.20
2018-07-26T00:06:03.459Z,54.80
2018-07-26T00:08:35.059Z,54.10
2018-07-26T00:11:06.576Z,54.10
2018-07-26T00:13:38.054Z,54.10
2018-07-26T00:16:09.530Z,54.20
2018-07-26T00:18:41.158Z,54.20
2018-07-26T00:21:12.665Z,54.30
2018-07-26T00:23:44.370Z,54.30
2018-07-26T00:26:16.031Z,54.50
2018-07-26T00:28:47.791Z,54.80
2018-07-26T00:31:19.316Z,54.70
2018-07-26T00:33:51.150Z,54.70
2018-07-26T00:36:22.984Z,54.80
2018-07-26T00:41:25.797Z,55.00
2018-07-26T00:43:57.421Z,55.00
2018-07-26T00:46:29.046Z,55.10
2018-07-26T00:49:00.659Z,55.10
2018-07-26T00:51:32.401Z,55.80
2018-07-26T00:54:04.140Z,55.20
2018-07-26T00:56:35.723Z,55.20
2018-07-26T00:59:07.327Z,55.10
2018-07-26T01:01:38.929Z,55.20
2018-07-26T01:04:10.807Z,55.30
2018-07-26T01:06:42.273Z,55.30
2018-07-26T01:09:13.941Z,55.40
2018-07-26T01:11:45.418Z,55.50
2018-07-26T01:14:16.960Z,55.60
2018-07-26T01:16:48.414Z,55.50
2018-07-26T01:19:19.876Z,55.60
2018-07-26T01:21:51.605Z,55.60
2018-07-26T01:24:25.064Z,55.70
2018-07-26T01:26:56.611Z,55.80
2018-07-26T01:29:29.467Z,55.90
2018-07-26T01:32:01.113Z,55.90
2018-07-26T01:37:03.606Z,56.60
2018-07-26T01:39:35.046Z,56.00
2018-07-26T01:42:06.654Z,56.10
2018-07-26T01:44:38.107Z,56.20
2018-07-26T01:47:09.765Z,56.20
2018-07-26T01:49:41.741Z,56.30
2018-07-26T01:52:13.279Z,56.40
2018-07-26T01:54:44.706Z,56.30
2018-07-26T01:57:16.602Z,56.30
2018-07-26T01:59:48.205Z,56.40
2018-07-26T02:04:50.723Z,56.50
2018-07-26T02:07:22.496Z,56.50
2018-07-26T02:09:54.364Z,56.60
2018-07-26T02:12:25.947Z,56.60
2018-07-26T02:14:57.563Z,57.40
2018-07-26T02:17:29.143Z,56.80
2018-07-26T02:20:00.618Z,56.60
2018-07-26T02:25:03.768Z,56.70
2018-07-26T02:27:35.270Z,56.80
2018-07-26T02:30:07.383Z,56.80
2018-07-26T02:32:38.843Z,56.80
2018-07-26T02:35:10.337Z,56.80
2018-07-26T02:37:42.145Z,56.80
2018-07-26T02:40:13.918Z,56.90
2018-07-26T02:42:45.748Z,56.90
2018-07-26T02:45:17.109Z,56.90
2018-07-26T02:47:48.588Z,57.00
2018-07-26T02:50:20.063Z,57.00
2018-07-26T02:52:51.646Z,57.20
2018-07-26T02:55:23.397Z,57.10
2018-07-26T02:57:54.981Z,57.20
2018-07-26T03:00:26.744Z,57.20
2018-07-26T03:02:58.235Z,57.30
2018-07-26T03:05:29.742Z,57.40
2018-07-26T03:08:01.152Z,57.30
2018-07-26T03:10:32.981Z,57.40
2018-07-26T03:13:04.771Z,57.50
2018-07-26T03:15:36.434Z,57.40
2018-07-26T03:18:08.381Z,57.50
2018-07-26T03:20:39.888Z,57.60
2018-07-26T03:23:11.751Z,57.60
2018-07-26T03:25:43.625Z,57.50
2018-07-26T03:28:15.029Z,57.60
2018-07-26T03:30:46.797Z,57.60
2018-07-26T03:33:18.632Z,57.60
2018-07-26T03:35:50.100Z,57.80
2018-07-26T03:38:21.552Z,57.80
2018-07-26T03:40:53.425Z,57.80
2018-07-26T03:43:24.892Z,57.30
2018-07-26T03:45:56.334Z,57.90
2018-07-26T03:48:28.089Z,58.10
2018-07-26T03:51:00.315Z,58.20
2018-07-26T03:53:32.068Z,58.30
2018-07-26T03:56:03.593Z,58.30
2018-07-26T03:58:35.029Z,58.30
2018-07-26T04:01:06.468Z,58.30
2018-07-26T04:03:37.923Z,58.40
2018-07-26T04:06:09.771Z,58.50
2018-07-26T04:08:41.262Z,58.90
2018-07-26T04:11:12.732Z,58.70
2018-07-26T04:13:44.253Z,58.60
2018-07-26T04:16:16.049Z,58.60
2018-07-26T04:18:47.634Z,58.70
2018-07-26T04:21:19.830Z,58.80
2018-07-26T04:23:51.089Z,58.80
2018-07-26T04:26:22.548Z,58.80
2018-07-26T04:31:25.392Z,59.00
2018-07-26T04:33:56.853Z,59.00
2018-07-26T04:36:28.432Z,59.10
2018-07-26T04:39:00.273Z,59.10
2018-07-26T04:41:31.798Z,59.10
2018-07-26T04:44:03.525Z,59.20
2018-07-26T04:46:35.384Z,59.20
2018-07-26T04:49:06.839Z,59.30
2018-07-26T04:51:38.961Z,59.30
2018-07-26T04:54:10.968Z,59.30
2018-07-26T04:56:42.840Z,59.50
2018-07-26T04:59:14.286Z,59.60
2018-07-26T05:01:45.699Z,59.40
2018-07-26T05:04:17.354Z,59.40
2018-07-26T05:06:49.304Z,59.40
2018-07-26T05:09:20.908Z,59.40
2018-07-26T05:11:52.565Z,59.40
2018-07-26T05:14:24.121Z,59.30
2018-07-26T05:16:56.005Z,59.90
2018-07-26T05:21:59.084Z,59.60
2018-07-26T05:24:30.520Z,59.30
2018-07-26T05:27:02.443Z,60.00
2018-07-26T05:29:34.075Z,59.60
2018-07-26T05:32:05.841Z,59.40
2018-07-26T05:34:37.458Z,59.50
2018-07-26T05:37:09.137Z,59.50
2018-07-26T05:39:40.759Z,59.60
2018-07-26T05:42:12.317Z,59.60
2018-07-26T05:44:44.037Z,59.50
2018-07-26T05:47:15.551Z,59.40
2018-07-26T05:49:47.251Z,59.20
2018-07-26T05:52:18.912Z,59.20
2018-07-26T05:54:50.417Z,59.20
2018-07-26T05:57:23.923Z,59.30
2018-07-26T05:59:55.437Z,59.30
2018-07-26T06:02:27.710Z,59.30
2018-07-26T06:04:59.538Z,59.10
2018-07-26T06:07:31.016Z,59.10
2018-07-26T06:10:02.734Z,59.20
2018-07-26T06:12:34.373Z,59.30
2018-07-26T06:15:09.776Z,59.30
2018-07-26T06:17:41.892Z,59.20
2018-07-26T06:20:13.472Z,59.20
2018-07-26T06:22:44.934Z,59.20
2018-07-26T06:25:16.445Z,59.10
2018-07-26T06:27:48.163Z,59.00
2018-07-26T06:30:19.730Z,58.90
2018-07-26T06:32:51.302Z,59.00
2018-07-26T06:35:22.806Z,58.90
2018-07-26T06:37:54.791Z,58.80
2018-07-26T06:40:26.663Z,58.80
2018-07-26T06:42:58.570Z,58.70
2018-07-26T06:45:30.311Z,58.50
2018-07-26T06:48:02.042Z,58.40
2018-07-26T06:50:33.666Z,58.00
2018-07-26T06:55:36.345Z,58.10
2018-07-26T07:00:39.505Z,57.90
2018-07-26T07:03:10.921Z,57.30
2018-07-26T07:05:49.529Z,57.00
2018-07-26T07:08:22.130Z,57.10
2018-07-26T07:10:54.370Z,57.10
2018-07-26T07:13:26.736Z,57.00
2018-07-26T07:15:58.895Z,56.70
2018-07-26T07:18:31.150Z,56.40
2018-07-26T07:21:06.746Z,56.30
2018-07-26T07:23:40.179Z,56.00
2018-07-26T07:26:12.438Z,55.80
2018-07-26T07:28:44.665Z,55.60
2018-07-26T07:33:48.659Z,55.00
2018-07-26T07:36:20.715Z,55.00
2018-07-26T07:38:52.733Z,54.70
2018-07-26T07:41:25.315Z,54.00
2018-07-26T07:46:29.541Z,54.40
2018-07-26T07:49:01.800Z,53.80
2018-07-26T07:51:34.558Z,53.80
2018-07-26T07:54:07.230Z,53.40
2018-07-26T07:56:39.893Z,53.30
2018-07-26T07:59:12.068Z,53.00
2018-07-26T08:01:44.002Z,52.90
2018-07-26T08:04:17.340Z,52.70
2018-07-26T08:06:49.789Z,52.50
2018-07-26T08:09:22.058Z,52.20
2018-07-26T08:11:54.066Z,52.10
2018-07-26T08:14:26.102Z,51.90
2018-07-26T08:16:58.261Z,51.50
2018-07-26T08:19:30.798Z,51.10
2018-07-26T08:22:02.957Z,50.60
2018-07-26T08:24:35.099Z,50.30
2018-07-26T08:27:07.342Z,49.90
2018-07-26T08:29:39.846Z,49.70
2018-07-26T08:32:12.164Z,49.70
2018-07-26T08:34:44.192Z,49.60
2018-07-26T08:37:16.638Z,49.50
2018-07-26T08:39:49.109Z,49.20
2018-07-26T08:42:21.738Z,49.20
2018-07-26T08:44:54.198Z,48.50
2018-07-26T08:47:27.081Z,48.60
2018-07-26T08:49:59.250Z,48.40
2018-07-26T08:52:31.727Z,48.30
2018-07-26T08:55:03.947Z,48.30
2018-07-26T08:57:36.322Z,47.30
2018-07-26T09:00:09.021Z,47.50
2018-07-26T09:02:41.170Z,47.60
2018-07-26T09:10:17.265Z,47.40
2018-07-26T09:12:49.369Z,46.50
2018-07-26T09:15:21.893Z,46.40
2018-07-26T09:17:54.134Z,46.50
2018-07-26T09:20:26.861Z,45.60
2018-07-26T09:22:59.096Z,45.20
2018-07-26T09:28:02.960Z,44.60
2018-07-26T09:30:35.085Z,44.50
2018-07-26T09:33:07.204Z,44.80
2018-07-26T09:35:39.297Z,44.30
2018-07-26T09:38:11.475Z,44.00
2018-07-26T09:40:43.526Z,43.70
2018-07-26T09:43:15.703Z,43.80
2018-07-26T09:45:47.835Z,43.70
2018-07-26T09:48:19.929Z,43.90
2018-07-26T09:50:52.042Z,43.20
2018-07-26T09:53:24.470Z,43.20
2018-07-26T09:55:56.602Z,42.00
2018-07-26T10:01:05.477Z,42.60
2018-07-26T10:03:37.585Z,42.20
2018-07-26T10:06:09.911Z,41.80
2018-07-26T10:08:41.995Z,41.50
2018-07-26T10:11:15.371Z,41.70
2018-07-26T10:13:47.393Z,40.70
2018-07-26T10:16:19.621Z,40.80
2018-07-26T10:18:51.915Z,40.90
2018-07-26T10:21:24.039Z,40.60
2018-07-26T10:23:56.110Z,40.00
2018-07-26T10:26:28.241Z,40.50
2018-07-26T10:29:00.298Z,40.50
2018-07-26T10:31:32.961Z,40.30
2018-07-26T10:34:05.601Z,38.90
2018-07-26T10:36:37.582Z,39.00
2018-07-26T10:39:11.473Z,38.70
2018-07-26T10:41:43.536Z,38.40
2018-07-26T10:44:15.757Z,38.30
2018-07-26T10:46:48.166Z,37.50
2018-07-26T10:49:20.572Z,37.10
2018-07-26T10:51:52.613Z,36.50
2018-07-26T10:54:24.639Z,35.90
2018-07-26T10:56:57.487Z,35.30
2018-07-26T10:59:29.641Z,35.40
2018-07-26T11:07:04.455Z,34.30
2018-07-26T11:09:36.592Z,33.70
2018-07-26T11:12:09.270Z,33.30
2018-07-26T11:14:41.273Z,32.20
2018-07-26T11:17:13.334Z,32.20
2018-07-26T11:19:45.274Z,31.80
2018-07-26T11:22:17.326Z,31.70
2018-07-26T11:24:54.365Z,31.10
2018-07-26T11:27:26.823Z,30.80
2018-07-26T11:30:04.991Z,31.20
2018-07-26T11:32:37.356Z,30.80
2018-07-26T11:35:09.571Z,30.40
2018-07-26T11:37:41.440Z,30.10
2018-07-26T11:40:13.783Z,29.80
2018-07-26T11:42:45.619Z,29.00
2018-07-26T11:45:17.570Z,28.80
2018-07-26T11:47:49.629Z,28.90
2018-07-26T11:53:00.026Z,29.00
2018-07-26T11:55:32.062Z,28.10
2018-07-26T11:58:03.932Z,28.20
2018-07-26T12:00:35.766Z,27.40
2018-07-26T12:03:08.221Z,27.00
2018-07-26T12:05:40.156Z,26.40
2018-07-26T12:08:11.928Z,27.00
2018-07-26T12:10:44.137Z,26.20
2018-07-26T12:15:47.692Z,26.20
2018-07-26T12:18:20.687Z,26.20
2018-07-26T12:20:52.785Z,26.30
2018-07-26T12:23:25.867Z,26.20
2018-07-26T12:25:58.028Z,25.90
2018-07-26T12:28:30.107Z,26.20
2018-07-26T12:31:02.125Z,25.80
2018-07-26T12:33:34.285Z,26.10
2018-07-26T12:36:06.424Z,26.20
2018-07-26T12:38:38.861Z,26.60
2018-07-26T12:41:10.990Z,26.40
2018-07-26T12:43:43.520Z,26.20
2018-07-26T12:46:16.085Z,26.00
2018-07-26T12:48:48.236Z,26.70
2018-07-26T12:51:20.335Z,26.50
2018-07-26T12:53:53.202Z,26.20
2018-07-26T12:56:25.510Z,25.70
2018-07-26T12:58:57.816Z,26.20
2018-07-26T13:01:30.036Z,25.90
2018-07-26T13:04:02.645Z,25.90
2018-07-26T13:06:35.040Z,26.20
2018-07-26T13:09:09.994Z,26.30
2018-07-26T13:11:42.486Z,26.10
2018-07-26T13:14:14.648Z,26.60
2018-07-26T13:19:18.108Z,26.90
2018-07-26T13:21:49.962Z,26.80
2018-07-26T13:24:21.901Z,26.50
2018-07-26T13:31:56.479Z,26.10
2018-07-26T13:34:28.335Z,25.70
2018-07-26T13:37:00.447Z,25.60
2018-07-26T13:39:31.947Z,25.50
2018-07-26T13:42:04.327Z,24.90
2018-07-26T13:44:36.210Z,25.10
2018-07-26T13:47:08.373Z,24.90
2018-07-26T13:49:40.378Z,24.60
2018-07-26T13:52:12.259Z,24.60
2018-07-26T13:54:44.234Z,24.20
2018-07-26T13:57:16.359Z,23.80
2018-07-26T13:59:48.255Z,23.40
2018-07-26T14:02:20.638Z,23.20
2018-07-26T14:07:24.612Z,22.90
2018-07-26T14:09:56.935Z,23.50
2018-07-26T14:12:29.320Z,23.70
2018-07-26T14:15:01.701Z,23.20
2018-07-26T14:17:33.701Z,23.20
2018-07-26T14:20:08.990Z,23.00
2018-07-26T14:22:42.150Z,22.90
2018-07-26T14:27:52.553Z,24.20
2018-07-26T14:32:57.730Z,23.20
2018-07-26T14:35:30.077Z,23.50
2018-07-26T14:38:02.417Z,23.50
2018-07-26T14:40:35.186Z,23.80
2018-07-26T14:43:07.502Z,23.30
2018-07-26T14:45:39.798Z,23.90
2018-07-26T14:48:12.395Z,23.60
2018-07-26T14:50:44.944Z,24.00
2018-07-26T14:58:20.623Z,23.30
2018-07-26T15:00:53.056Z,23.20
2018-07-26T15:03:25.551Z,23.40
2018-07-26T15:05:57.847Z,23.40
2018-07-26T15:08:30.342Z,23.40
2018-07-26T15:11:03.269Z,23.50
2018-07-26T15:13:38.510Z,23.40
2018-07-26T15:16:11.857Z,23.50
2018-07-26T15:18:44.457Z,23.40
2018-07-26T15:21:19.641Z,23.30
2018-07-26T15:26:27.771Z,23.30
2018-07-26T15:29:00.610Z,23.60
2018-07-26T15:34:04.804Z,23.40
2018-07-26T15:36:37.218Z,23.70
2018-07-26T15:39:12.315Z,23.60
2018-07-26T15:41:46.452Z,23.90
2018-07-26T15:44:18.696Z,23.70
2018-07-26T15:46:50.918Z,23.90
2018-07-26T15:49:23.540Z,23.60
2018-07-26T15:51:55.745Z,23.50
2018-07-26T15:54:28.164Z,23.70
2018-07-26T15:57:00.411Z,23.90
2018-07-26T15:59:32.653Z,23.90
2018-07-26T16:02:04.644Z,23.90
2018-07-26T16:04:36.790Z,23.60
2018-07-26T16:07:10.091Z,23.40
2018-07-26T16:09:42.826Z,23.30
2018-07-26T16:12:15.048Z,23.40
2018-07-26T16:14:47.377Z,23.40
2018-07-26T16:17:19.614Z,23.40
2018-07-26T16:19:52.066Z,23.50
2018-07-26T16:22:24.820Z,23.00
2018-07-26T16:24:57.410Z,23.20
2018-07-26T16:30:01.933Z,23.30
2018-07-26T16:32:34.173Z,23.00
2018-07-26T16:37:38.510Z,23.30
2018-07-26T16:40:10.858Z,23.30
2018-07-26T16:42:43.289Z,23.80
2018-07-26T16:45:15.632Z,23.70
2018-07-26T16:47:47.927Z,23.50
2018-07-26T16:50:20.432Z,23.90
2018-07-26T16:52:53.576Z,23.90
2018-07-26T16:55:25.664Z,23.80
2018-07-26T16:57:57.952Z,23.90
2018-07-26T17:00:30.304Z,23.90
2018-07-26T17:03:03.035Z,24.10
2018-07-26T17:05:35.479Z,24.10
2018-07-26T17:10:39.392Z,24.00
2018-07-26T17:13:11.670Z,24.20
2018-07-26T17:15:44.110Z,24.10
2018-07-26T17:18:16.301Z,24.10
2018-07-26T17:20:48.998Z,24.30
2018-07-26T17:23:21.853Z,24.20
2018-07-26T17:25:54.263Z,24.10
2018-07-26T17:28:33.008Z,24.30
2018-07-26T17:31:06.314Z,24.30
2018-07-26T17:33:38.476Z,24.90
2018-07-26T17:36:11.941Z,24.60
2018-07-26T17:41:24.007Z,24.50
2018-07-26T17:46:30.934Z,24.70
2018-07-26T17:49:03.419Z,25.20
2018-07-26T17:51:35.875Z,24.70
2018-07-26T17:54:08.349Z,24.80
2018-07-26T17:56:40.456Z,24.80
2018-07-26T17:59:12.925Z,25.20
2018-07-26T18:01:45.141Z,25.30
2018-07-26T18:04:17.354Z,25.20
2018-07-26T18:06:49.797Z,25.30
2018-07-26T18:09:22.143Z,25.30
2018-07-26T18:11:54.176Z,25.40
2018-07-26T18:14:26.244Z,25.30
2018-07-26T18:16:58.850Z,25.50
2018-07-26T18:19:31.232Z,25.70
2018-07-26T18:22:03.848Z,25.70
2018-07-26T18:24:36.096Z,25.70
2018-07-26T18:27:08.225Z,26.20
2018-07-26T18:29:41.636Z,25.70
2018-07-26T18:32:13.807Z,25.90
2018-07-26T18:34:46.108Z,26.00
2018-07-26T18:39:50.678Z,26.10
2018-07-26T18:42:23.473Z,25.90
2018-07-26T18:47:27.957Z,26.30
2018-07-26T18:50:00.453Z,26.30
2018-07-26T18:52:33.006Z,26.80
2018-07-26T18:55:07.405Z,26.20
2018-07-26T18:57:40.559Z,26.20
2018-07-26T19:00:13.886Z,26.30
2018-07-26T19:02:46.422Z,26.20
2018-07-26T19:05:18.936Z,26.40
2018-07-26T19:07:51.577Z,26.10
2018-07-26T19:10:24.439Z,26.70
2018-07-26T19:15:28.846Z,27.10
2018-07-26T19:18:02.074Z,27.20
2018-07-26T19:20:34.362Z,27.40
2018-07-26T19:23:06.500Z,27.40
2018-07-26T19:25:38.741Z,28.40
2018-07-26T19:28:10.977Z,28.00
2018-07-26T19:30:43.254Z,28.00
2018-07-26T19:35:47.278Z,28.20
2018-07-26T19:38:19.365Z,28.20
2018-07-26T19:40:51.977Z,28.40
2018-07-26T19:43:24.109Z,28.40
2018-07-26T19:45:56.688Z,28.50
2018-07-26T19:48:28.732Z,28.60
2018-07-26T19:51:01.189Z,28.80
2018-07-26T19:53:33.399Z,28.90
2018-07-26T19:58:37.313Z,29.40
2018-07-26T20:01:10.154Z,29.40
2018-07-26T20:03:42.631Z,29.70
2018-07-26T20:06:15.359Z,29.90
2018-07-26T20:08:47.798Z,30.10
2018-07-26T20:11:20.107Z,30.00
2018-07-26T20:13:52.194Z,30.20
2018-07-26T20:16:24.338Z,30.30
2018-07-26T20:18:56.608Z,30.60
2018-07-26T20:21:29.190Z,30.80
2018-07-26T20:24:01.548Z,30.90
2018-07-26T20:26:33.782Z,30.90
2018-07-26T20:29:06.526Z,30.70
2018-07-26T20:31:39.943Z,31.00
2018-07-26T20:34:12.655Z,31.20
2018-07-26T20:36:45.149Z,30.90
2018-07-26T20:39:17.708Z,30.80
2018-07-26T20:41:50.240Z,30.70
2018-07-26T20:44:23.380Z,31.20
2018-07-26T20:49:29.879Z,30.90
2018-07-26T20:52:02.762Z,30.70
2018-07-26T20:54:35.381Z,30.80
2018-07-26T20:57:07.597Z,30.90
2018-07-26T20:59:40.552Z,31.00
2018-07-26T21:02:13.234Z,31.10
2018-07-26T21:04:45.980Z,31.20
2018-07-26T21:07:18.318Z,31.80
2018-07-26T21:09:50.997Z,31.10
2018-07-26T21:12:23.484Z,31.30
2018-07-26T21:14:55.651Z,31.30
2018-07-26T21:17:27.843Z,31.30
2018-07-26T21:19:59.943Z,31.50
2018-07-26T21:22:31.826Z,31.50
2018-07-26T21:25:04.184Z,31.40
2018-07-26T21:27:36.217Z,31.70
2018-07-26T21:30:09.429Z,31.60
2018-07-26T21:32:41.489Z,31.60
2018-07-26T21:35:13.546Z,31.70
2018-07-26T21:37:45.624Z,32.60
2018-07-26T21:40:17.873Z,32.00
2018-07-26T21:42:50.297Z,31.90
2018-07-26T21:45:22.483Z,32.10
2018-07-26T21:47:54.512Z,32.00
2018-07-26T21:52:58.574Z,32.00
2018-07-26T21:55:31.265Z,31.90
2018-07-26T21:58:03.896Z,32.00
2018-07-26T22:00:42.522Z,31.80
2018-07-26T22:03:14.693Z,31.80
2018-07-26T22:05:47.808Z,32.00
2018-07-26T22:08:19.949Z,32.00
2018-07-26T22:10:52.136Z,31.90
2018-07-26T22:15:57.820Z,31.90
2018-07-26T22:18:30.088Z,32.20
2018-07-26T22:21:02.584Z,32.00
2018-07-26T22:23:35.289Z,32.30
2018-07-26T22:26:07.673Z,32.20
2018-07-26T22:28:39.830Z,31.80
2018-07-26T22:31:11.979Z,31.70
2018-07-26T22:33:44.319Z,31.90
2018-07-26T22:36:16.475Z,32.00
2018-07-26T22:38:49.033Z,31.90
2018-07-26T22:41:21.160Z,32.00
2018-07-26T22:43:54.612Z,31.90
2018-07-26T22:46:26.834Z,32.10
2018-07-26T22:48:59.418Z,32.00
2018-07-26T22:51:32.024Z,32.20
2018-07-26T22:54:04.821Z,32.00
2018-07-26T22:56:37.244Z,32.00
2018-07-26T22:59:09.809Z,32.00
2018-07-26T23:01:41.997Z,31.90
2018-07-26T23:04:14.112Z,31.90
2018-07-26T23:06:46.343Z,31.90
2018-07-26T23:09:18.697Z,32.00
2018-07-26T23:11:50.861Z,31.90
2018-07-26T23:14:23.065Z,31.80
2018-07-26T23:16:55.469Z,32.00
2018-07-26T23:19:27.802Z,31.80
2018-07-26T23:21:59.927Z,31.90
2018-07-26T23:24:32.057Z,31.80
2018-07-26T23:27:04.342Z,31.70
2018-07-26T23:29:36.513Z,31.80
2018-07-26T23:32:08.579Z,32.00
2018-07-26T23:34:40.898Z,32.20
2018-07-26T23:37:13.114Z,31.80
2018-07-26T23:39:45.287Z,32.00
2018-07-26T23:42:18.274Z,32.10
2018-07-26T23:44:50.688Z,31.80
2018-07-26T23:49:54.614Z,31.90
2018-07-26T23:52:28.884Z,31.80
2018-07-26T23:55:01.258Z,32.00
2018-07-26T23:57:33.870Z,31.90
